Time;durP1;ratioP1;P1;durP2;ratioP2;P2;SDS_P1;SDS_P2;PMS_P1;PMS_P2;Temp;Humidity;BMP_temperature;BMP_pressure;BME280_temperature;BME280_humidity;BME280_pressure;Samples;Min_cycle;Max_cycle;Signal;HPM_P1;HPM_P2
2023/12/14 00:00:07;;;;;;;84.87;30.20;;;9.20;99.90;;;;;;5001913;28;20281;-83
2023/12/14 00:02:34;;;;;;;74.47;29.10;;;9.40;99.90;;;;;;5008512;28;20225;-81
2023/12/14 00:05:01;;;;;;;74.47;27.37;;;9.40;99.90;;;;;;5011850;28;20227;-81
2023/12/14 00:07:28;;;;;;;70.73;28.20;;;9.30;99.90;;;;;;5012949;28;20647;-81
2023/12/14 00:09:56;;;;;;;74.23;28.80;;;9.20;99.90;;;;;;4999889;28;20272;-80
2023/12/14 00:12:23;;;;;;;69.67;26.77;;;9.30;99.90;;;;;;5013357;28;20220;-82
2023/12/14 00:14:50;;;;;;;69.73;27.07;;;9.30;99.90;;;;;;5001595;28;20595;-81
2023/12/14 00:17:17;;;;;;;73.40;27.87;;;9.30;99.90;;;;;;5009599;28;20202;-82
2023/12/14 00:19:44;;;;;;;70.67;26.87;;;9.10;99.90;;;;;;4997311;28;20222;-82
2023/12/14 00:22:11;;;;;;;77.87;26.10;;;9.00;99.90;;;;;;4993738;28;20207;-82
2023/12/14 00:24:38;;;;;;;70.57;27.00;;;9.10;99.90;;;;;;5011822;28;20194;-80
2023/12/14 00:27:06;;;;;;;65.23;26.20;;;9.10;99.90;;;;;;5018935;28;20200;-82
2023/12/14 00:29:33;;;;;;;65.13;25.63;;;9.10;99.90;;;;;;5018121;28;20195;-83
2023/12/14 00:32:00;;;;;;;67.83;25.67;;;9.10;99.90;;;;;;5013100;28;20523;-80
2023/12/14 00:34:27;;;;;;;80.57;27.40;;;8.90;99.90;;;;;;5015137;28;20686;-82
2023/12/14 00:36:54;;;;;;;68.37;26.13;;;8.90;99.90;;;;;;5009908;28;20230;-82
2023/12/14 00:39:21;;;;;;;70.50;26.53;;;8.90;99.90;;;;;;5005500;28;20248;-80
2023/12/14 00:41:48;;;;;;;66.83;26.67;;;8.90;99.90;;;;;;5016380;28;20225;-82
2023/12/14 00:44:16;;;;;;;81.67;28.07;;;9.00;99.90;;;;;;5019396;28;20214;-82
2023/12/14 00:46:43;;;;;;;64.57;27.93;;;9.00;99.90;;;;;;5012705;28;20198;-83
2023/12/14 00:49:10;;;;;;;69.77;28.23;;;8.90;99.90;;;;;;5001806;28;20218;-82
2023/12/14 00:51:37;;;;;;;71.80;28.10;;;8.90;99.90;;;;;;5011424;28;20411;-80
2023/12/14 00:54:04;;;;;;;79.20;28.67;;;8.90;99.90;;;;;;5017304;28;20220;-80
2023/12/14 00:56:31;;;;;;;73.73;29.27;;;8.90;99.90;;;;;;5016072;28;20724;-81
2023/12/14 00:58:58;;;;;;;76.13;29.13;;;9.00;99.90;;;;;;5014069;28;20198;-82
2023/12/14 01:01:26;;;;;;;80.67;29.97;;;9.10;99.90;;;;;;5012531;28;20255;-82
2023/12/14 01:03:52;;;;;;;82.93;30.03;;;9.10;99.90;;;;;;5002629;28;20241;-81
2023/12/14 01:06:19;;;;;;;81.00;29.40;;;9.20;99.90;;;;;;5008102;28;20194;-81
2023/12/14 01:08:46;;;;;;;90.63;32.20;;;9.20;99.90;;;;;;5014887;28;20232;-83
2023/12/14 01:11:13;;;;;;;85.87;30.97;;;9.10;99.90;;;;;;5012227;28;20198;-80
2023/12/14 01:13:40;;;;;;;91.53;32.97;;;9.00;99.90;;;;;;5003449;28;20219;-81
2023/12/14 01:16:07;;;;;;;96.60;33.77;;;9.10;99.90;;;;;;4994797;28;20218;-82
2023/12/14 01:18:36;;;;;;;95.10;33.53;;;9.20;99.90;;;;;;4994210;28;20286;-83
2023/12/14 01:21:03;;;;;;;83.00;31.40;;;9.30;99.90;;;;;;5012041;28;20303;-82
2023/12/14 01:23:30;;;;;;;88.23;32.90;;;9.20;99.90;;;;;;5004131;28;20243;-80
2023/12/14 01:25:58;;;;;;;92.90;35.33;;;9.30;99.90;;;;;;4975739;28;20208;-82
2023/12/14 01:28:25;;;;;;;92.03;34.37;;;9.30;99.90;;;;;;4980676;28;20257;-82
2023/12/14 01:30:53;;;;;;;95.47;33.13;;;9.20;99.90;;;;;;4988825;28;22468;-82
2023/12/14 01:33:22;;;;;;;93.23;33.50;;;9.10;99.90;;;;;;4991435;28;20245;-82
2023/12/14 01:35:50;;;;;;;87.13;32.13;;;9.10;99.90;;;;;;4998069;28;20225;-79
2023/12/14 01:38:17;;;;;;;94.57;32.53;;;9.10;99.90;;;;;;4998545;28;20187;-79
2023/12/14 01:40:44;;;;;;;88.27;31.17;;;9.00;99.90;;;;;;4981133;28;20325;-80
2023/12/14 01:43:11;;;;;;;87.40;33.07;;;9.00;99.90;;;;;;4968272;28;21060;-80
2023/12/14 01:45:38;;;;;;;97.97;32.93;;;8.80;99.90;;;;;;4988808;28;20345;-81
2023/12/14 01:48:05;;;;;;;78.27;31.23;;;8.80;99.90;;;;;;4972201;28;21024;-82
2023/12/14 01:50:32;;;;;;;88.90;30.97;;;8.90;99.90;;;;;;4972001;28;20347;-81
2023/12/14 01:53:03;;;;;;;85.80;30.30;;;9.00;99.90;;;;;;4970397;28;20365;-81
2023/12/14 01:55:30;;;;;;;79.70;29.60;;;9.10;99.90;;;;;;4977387;28;20285;-83
2023/12/14 01:57:57;;;;;;;81.57;29.67;;;9.00;99.90;;;;;;4993191;28;20222;-82
2023/12/14 02:00:31;;;;;;;73.23;28.23;;;8.90;99.90;;;;;;4993423;28;20275;-81
2023/12/14 02:02:58;;;;;;;82.90;29.87;;;8.90;99.90;;;;;;4992724;28;20254;-81
2023/12/14 02:05:25;;;;;;;70.23;28.87;;;8.90;99.90;;;;;;4993161;28;20190;-82
2023/12/14 02:07:52;;;;;;;75.23;29.33;;;8.80;99.90;;;;;;4977735;28;20329;-82
2023/12/14 02:10:20;;;;;;;82.70;30.73;;;8.80;99.90;;;;;;4973337;28;20211;-81
2023/12/14 02:12:47;;;;;;;80.10;30.63;;;8.80;99.90;;;;;;4973613;28;20218;-81
2023/12/14 02:15:14;;;;;;;74.07;30.03;;;8.80;99.90;;;;;;4974361;28;20345;-80
2023/12/14 02:17:41;;;;;;;70.10;29.60;;;8.80;99.90;;;;;;4987889;28;20319;-82
2023/12/14 02:20:08;;;;;;;70.43;29.73;;;9.00;99.90;;;;;;4997174;28;20230;-81
2023/12/14 02:22:50;;;;;;;92.07;32.43;;;8.80;99.90;;;;;;4996793;28;20257;-81
2023/12/14 02:25:17;;;;;;;88.87;33.47;;;8.80;99.90;;;;;;4996513;28;20643;-81
2023/12/14 02:27:44;;;;;;;87.17;32.83;;;8.70;99.90;;;;;;4996243;28;20605;-80
2023/12/14 02:30:12;;;;;;;91.47;35.67;;;8.60;99.90;;;;;;4973454;28;20293;-81
2023/12/14 02:32:39;;;;;;;93.73;35.30;;;8.60;99.90;;;;;;4973714;28;20222;-79
2023/12/14 02:35:07;;;;;;;94.97;33.03;;;8.50;99.90;;;;;;4974113;28;20286;-80
2023/12/14 02:37:34;;;;;;;90.30;34.67;;;8.30;99.90;;;;;;4976460;28;20715;-80
2023/12/14 02:40:03;;;;;;;104.83;37.40;;;8.30;99.90;;;;;;4996308;28;20191;-80
2023/12/14 02:42:30;;;;;;;104.27;36.07;;;8.30;99.90;;;;;;4996122;28;20282;-81
2023/12/14 02:44:57;;;;;;;99.60;36.03;;;8.30;99.90;;;;;;4996334;28;20222;-80
2023/12/14 02:47:24;;;;;;;101.80;36.50;;;8.30;99.90;;;;;;4996221;28;20723;-81
2023/12/14 02:49:51;;;;;;;94.57;35.63;;;8.20;99.90;;;;;;4988009;28;20286;-80
2023/12/14 02:52:18;;;;;;;107.37;37.33;;;8.30;99.90;;;;;;4974440;28;21014;-79
2023/12/14 02:54:45;;;;;;;101.53;35.80;;;8.30;99.90;;;;;;4974073;28;20647;-78
2023/12/14 02:57:13;;;;;;;97.77;35.10;;;8.30;99.90;;;;;;4974021;28;20211;-80
2023/12/14 02:59:41;;;;;;;96.77;34.97;;;8.20;99.90;;;;;;4987131;28;20277;-79
2023/12/14 03:02:07;;;;;;;89.87;33.80;;;8.10;99.90;;;;;;4998510;28;20761;-80
2023/12/14 03:04:34;;;;;;;90.33;33.73;;;8.10;99.90;;;;;;4995713;28;20243;-82
2023/12/14 03:07:02;;;;;;;84.17;33.20;;;8.10;99.90;;;;;;4995934;28;20237;-82
2023/12/14 03:09:29;;;;;;;87.60;33.27;;;8.00;99.90;;;;;;4996534;28;20197;-81
2023/12/14 03:11:56;;;;;;;87.83;32.60;;;7.90;99.90;;;;;;4981197;28;20510;-81
2023/12/14 03:14:24;;;;;;;81.33;31.77;;;8.00;99.90;;;;;;4973463;28;20351;-81
2023/12/14 03:16:52;;;;;;;91.40;34.33;;;8.00;99.90;;;;;;4973039;28;20325;-80
2023/12/14 03:19:19;;;;;;;86.20;31.87;;;8.10;99.90;;;;;;4973770;28;20288;-80
2023/12/14 03:21:46;;;;;;;77.17;30.93;;;8.00;99.90;;;;;;4988673;28;20317;-81
2023/12/14 03:24:13;;;;;;;78.17;29.63;;;8.00;99.90;;;;;;4995270;28;20214;-82
2023/12/14 03:26:40;;;;;;;64.50;27.17;;;7.80;99.90;;;;;;4995859;28;20224;-81
2023/12/14 03:29:08;;;;;;;63.10;26.80;;;7.80;99.90;;;;;;4996014;28;20226;-81
2023/12/14 03:31:36;;;;;;;64.17;26.53;;;7.70;99.90;;;;;;4995005;28;20195;-82
2023/12/14 03:34:03;;;;;;;66.00;25.37;;;7.60;99.90;;;;;;4973358;28;20310;-78
2023/12/14 03:36:30;;;;;;;56.00;24.97;;;7.70;99.90;;;;;;4971528;28;20195;-80
2023/12/14 03:38:57;;;;;;;51.43;23.67;;;7.70;99.90;;;;;;4972187;28;20304;-80
2023/12/14 03:41:24;;;;;;;50.07;23.03;;;7.70;99.90;;;;;;4972421;28;20241;-80
2023/12/14 03:43:51;;;;;;;46.40;20.33;;;7.60;99.90;;;;;;4990836;28;20250;-81
2023/12/14 03:46:18;;;;;;;46.50;20.90;;;7.40;99.90;;;;;;4995173;28;20240;-82
2023/12/14 03:48:46;;;;;;;43.27;20.53;;;7.20;99.90;;;;;;4995109;28;20191;-81
2023/12/14 03:51:13;;;;;;;44.67;21.43;;;7.20;99.90;;;;;;4994902;28;20664;-82
2023/12/14 03:53:40;;;;;;;43.43;20.60;;;7.20;99.90;;;;;;4992481;28;20256;-80
2023/12/14 03:56:09;;;;;;;39.10;19.87;;;7.30;99.90;;;;;;4979144;28;20198;-80
2023/12/14 03:58:36;;;;;;;45.83;21.13;;;7.30;99.90;;;;;;4982258;28;20198;-79
2023/12/14 04:01:03;;;;;;;45.87;21.03;;;7.30;99.90;;;;;;4976469;28;20316;-81
2023/12/14 04:03:30;;;;;;;43.47;20.27;;;7.30;99.90;;;;;;4980541;28;20703;-81
2023/12/14 04:05:58;;;;;;;42.57;19.80;;;7.20;99.90;;;;;;5005869;28;20217;-81
2023/12/14 04:08:25;;;;;;;39.87;19.67;;;7.30;99.90;;;;;;5002893;28;20249;-81
2023/12/14 04:10:52;;;;;;;37.50;19.47;;;7.30;99.90;;;;;;4995168;28;20191;-82
2023/12/14 04:13:19;;;;;;;39.37;20.03;;;7.20;99.90;;;;;;4995289;28;20262;-81
2023/12/14 04:15:47;;;;;;;38.07;20.80;;;7.10;99.90;;;;;;4986854;28;20626;-80
2023/12/14 04:18:15;;;;;;;37.13;20.17;;;7.10;99.90;;;;;;4974846;28;20294;-80
2023/12/14 04:20:42;;;;;;;36.83;20.30;;;7.20;99.90;;;;;;4974200;28;20287;-81
2023/12/14 04:23:10;;;;;;;36.07;20.60;;;7.30;99.90;;;;;;4972674;28;20356;-79
2023/12/14 04:25:37;;;;;;;36.57;20.10;;;7.30;99.90;;;;;;4982423;28;20298;-82
2023/12/14 04:28:04;;;;;;;33.13;19.73;;;7.50;99.90;;;;;;5014403;28;20698;-81
2023/12/14 04:30:31;;;;;;;36.83;21.50;;;7.50;99.90;;;;;;5014093;28;20196;-82
2023/12/14 04:32:58;;;;;;;34.97;20.70;;;7.60;99.90;;;;;;5014589;28;20311;-81
2023/12/14 04:35:25;;;;;;;36.20;21.73;;;7.60;99.90;;;;;;5015152;28;20240;-82
2023/12/14 04:37:52;;;;;;;30.60;19.67;;;7.40;99.90;;;;;;4989477;28;20202;-79
2023/12/14 04:40:21;;;;;;;33.17;20.93;;;7.40;99.90;;;;;;4976337;28;20269;-81
2023/12/14 04:42:47;;;;;;;35.17;21.47;;;7.20;99.90;;;;;;4975872;28;20238;-81
2023/12/14 04:45:16;;;;;;;34.23;21.27;;;7.20;99.90;;;;;;4973170;28;20834;-79
2023/12/14 04:47:43;;;;;;;38.63;22.73;;;7.10;99.90;;;;;;4986064;28;20229;-79
2023/12/14 04:50:11;;;;;;;33.10;20.87;;;7.20;99.90;;;;;;4993942;28;20238;-78
2023/12/14 04:52:38;;;;;;;35.90;22.37;;;7.00;99.90;;;;;;4994351;28;20269;-77
2023/12/14 04:55:08;;;;;;;37.83;19.77;;;6.90;99.90;;;;;;4995633;28;20224;-80
2023/12/14 04:57:36;;;;;;;38.37;21.00;;;6.80;99.90;;;;;;4994982;28;20282;-77
2023/12/14 05:00:04;;;;;;;34.33;21.10;;;6.90;99.90;;;;;;4973052;28;20225;-77
2023/12/14 05:02:33;;;;;;;36.37;20.60;;;6.90;99.90;;;;;;4974274;28;20667;-78
2023/12/14 05:05:00;;;;;;;38.37;21.30;;;7.20;99.90;;;;;;4975019;28;20347;-79
2023/12/14 05:07:28;;;;;;;32.07;19.73;;;7.10;99.90;;;;;;4977310;28;20241;-77
2023/12/14 05:09:55;;;;;;;32.27;20.03;;;7.00;99.90;;;;;;4992765;28;20198;-77
2023/12/14 05:12:22;;;;;;;33.90;19.87;;;7.20;99.90;;;;;;4978746;28;20334;-78
2023/12/14 05:14:50;;;;;;;37.60;20.60;;;7.10;99.90;;;;;;4977054;28;20297;-81
2023/12/14 05:17:17;;;;;;;35.03;21.37;;;7.00;99.90;;;;;;4976927;28;20354;-79
2023/12/14 05:19:44;;;;;;;31.47;19.77;;;6.90;99.90;;;;;;4978753;28;20319;-79
2023/12/14 05:22:12;;;;;;;31.33;19.50;;;7.10;99.90;;;;;;5014984;28;20229;-80
2023/12/14 05:24:39;;;;;;;29.17;19.33;;;7.10;99.90;;;;;;5015455;28;20190;-78
2023/12/14 05:27:06;;;;;;;29.73;19.97;;;7.00;99.90;;;;;;5015109;28;20554;-79
2023/12/14 05:29:34;;;;;;;28.67;19.23;;;7.10;99.90;;;;;;5015089;28;20232;-79
2023/12/14 05:32:02;;;;;;;27.60;18.10;;;7.10;99.90;;;;;;5015600;28;20240;-79
2023/12/14 05:34:29;;;;;;;31.63;20.03;;;7.20;99.90;;;;;;5013563;28;20285;-79
2023/12/14 05:36:56;;;;;;;28.47;19.70;;;7.20;99.90;;;;;;5012908;28;20231;-80
2023/12/14 05:39:23;;;;;;;34.20;21.33;;;7.10;99.90;;;;;;4986231;28;20205;-82
2023/12/14 05:41:50;;;;;;;34.07;23.03;;;7.10;99.90;;;;;;4969718;28;20751;-82
2023/12/14 05:44:17;;;;;;;30.63;20.73;;;7.00;99.90;;;;;;4969483;28;20290;-81
2023/12/14 05:46:44;;;;;;;30.27;20.57;;;7.20;99.90;;;;;;4969470;28;20375;-81
2023/12/14 05:49:12;;;;;;;30.27;19.97;;;7.30;99.90;;;;;;4982488;28;20297;-82
2023/12/14 05:51:39;;;;;;;27.40;18.33;;;7.40;99.90;;;;;;4992688;28;20259;-82
2023/12/14 05:54:06;;;;;;;28.63;19.70;;;7.30;99.90;;;;;;4992784;28;20645;-81
2023/12/14 05:56:33;;;;;;;28.73;18.73;;;7.20;99.90;;;;;;4992998;28;20204;-82
2023/12/14 05:59:00;;;;;;;31.63;20.43;;;7.30;99.90;;;;;;4993307;28;20218;-82
2023/12/14 06:01:27;;;;;;;25.70;18.37;;;7.40;99.90;;;;;;4992771;28;20258;-82
2023/12/14 06:03:54;;;;;;;28.07;18.90;;;7.60;99.90;;;;;;4975577;28;20216;-80
2023/12/14 06:06:22;;;;;;;29.40;19.17;;;7.70;99.90;;;;;;4969369;28;20718;-82
2023/12/14 06:08:49;;;;;;;27.20;18.97;;;8.00;99.90;;;;;;4970737;28;20280;-81
2023/12/14 06:11:16;;;;;;;28.67;18.93;;;8.10;99.90;;;;;;4968889;28;20212;-81
2023/12/14 06:13:43;;;;;;;32.23;18.40;;;8.00;99.90;;;;;;4985761;28;20328;-83
2023/12/14 06:16:12;;;;;;;26.63;17.80;;;7.90;99.90;;;;;;4993170;28;20537;-82
2023/12/14 06:18:41;;;;;;;27.40;18.70;;;7.80;99.90;;;;;;4993422;28;20191;-78
2023/12/14 06:21:08;;;;;;;25.80;16.93;;;7.80;99.90;;;;;;4993327;28;20252;-81
2023/12/14 06:23:37;;;;;;;28.70;17.93;;;7.90;99.90;;;;;;4993257;28;20234;-81
2023/12/14 06:26:04;;;;;;;24.73;17.47;;;7.70;99.90;;;;;;4970003;28;20207;-83
2023/12/14 06:28:31;;;;;;;28.60;17.47;;;7.80;99.90;;;;;;4969588;28;20700;-81
2023/12/14 06:30:58;;;;;;;32.40;18.90;;;7.80;99.90;;;;;;4970477;28;20823;-82
2023/12/14 06:33:25;;;;;;;30.10;17.50;;;7.70;99.90;;;;;;4966908;28;20689;-78
2023/12/14 06:35:52;;;;;;;31.20;17.70;;;7.70;99.90;;;;;;4970955;28;20937;-82
2023/12/14 06:38:19;;;;;;;29.00;19.13;;;7.90;99.90;;;;;;4968104;28;20352;-80
2023/12/14 06:40:47;;;;;;;25.00;17.07;;;8.00;99.90;;;;;;4967107;28;20671;-79
2023/12/14 06:43:14;;;;;;;29.03;17.03;;;7.90;99.90;;;;;;4967835;28;20780;-83
2023/12/14 06:45:41;;;;;;;28.83;18.27;;;7.90;99.90;;;;;;4970461;28;20329;-81
2023/12/14 06:48:08;;;;;;;32.97;17.80;;;8.00;99.90;;;;;;4968420;28;20268;-81
2023/12/14 06:50:35;;;;;;;32.80;17.73;;;7.80;99.90;;;;;;4969128;28;20342;-81
2023/12/14 06:53:02;;;;;;;24.63;16.20;;;7.70;99.90;;;;;;4967190;28;20313;-79
2023/12/14 06:55:29;;;;;;;27.23;15.33;;;7.40;99.90;;;;;;4991018;28;20719;-80
2023/12/14 06:57:57;;;;;;;23.23;15.67;;;7.40;99.90;;;;;;4980937;28;20293;-81
2023/12/14 07:00:24;;;;;;;22.87;14.33;;;7.50;99.90;;;;;;4970681;28;22870;-80
2023/12/14 07:02:51;;;;;;;29.77;16.30;;;7.40;99.90;;;;;;4970792;28;21065;-81
2023/12/14 07:05:18;;;;;;;26.63;15.27;;;7.60;99.90;;;;;;4970273;28;22464;-81
2023/12/14 07:07:45;;;;;;;23.50;13.70;;;7.50;99.90;;;;;;4976820;28;20291;-80
2023/12/14 07:10:12;;;;;;;27.83;14.67;;;7.40;99.90;;;;;;4971731;28;20240;-79
2023/12/14 07:12:39;;;;;;;19.60;13.83;;;7.40;99.90;;;;;;4971003;28;20222;-79
2023/12/14 07:15:08;;;;;;;21.20;13.63;;;7.30;99.90;;;;;;4969775;28;20222;-80
2023/12/14 07:17:35;;;;;;;23.57;13.33;;;7.40;99.90;;;;;;4986878;28;20202;-80
2023/12/14 07:20:02;;;;;;;19.50;12.27;;;7.30;99.90;;;;;;5015636;28;20230;-77
2023/12/14 07:22:29;;;;;;;21.43;13.10;;;7.10;99.90;;;;;;5016391;28;20224;-79
2023/12/14 07:24:56;;;;;;;16.80;12.20;;;6.90;99.90;;;;;;5015458;28;20217;-81
2023/12/14 07:27:23;;;;;;;24.77;13.73;;;6.90;99.90;;;;;;5014807;28;20229;-82
2023/12/14 07:29:50;;;;;;;25.73;13.63;;;6.80;99.90;;;;;;4990090;28;20290;-79
2023/12/14 07:32:18;;;;;;;24.40;13.10;;;6.90;99.90;;;;;;4971358;28;20360;-80
2023/12/14 07:34:45;;;;;;;19.87;12.70;;;6.90;99.90;;;;;;4973812;28;20291;-80
2023/12/14 07:37:12;;;;;;;22.47;12.90;;;7.00;99.90;;;;;;4972490;28;20198;-80
2023/12/14 07:39:39;;;;;;;19.43;12.97;;;7.20;99.90;;;;;;4983673;28;20209;-81
2023/12/14 07:42:06;;;;;;;19.27;12.43;;;7.30;99.90;;;;;;4995274;28;20700;-81
2023/12/14 07:44:35;;;;;;;25.73;12.53;;;7.50;99.90;;;;;;4995684;28;20212;-80
2023/12/14 07:47:02;;;;;;;20.67;12.63;;;7.70;99.90;;;;;;4995191;28;20277;-79
2023/12/14 07:49:30;;;;;;;29.30;13.67;;;7.90;99.90;;;;;;4995225;28;20222;-80
2023/12/14 07:51:57;;;;;;;17.47;12.33;;;8.00;99.90;;;;;;5002551;28;20230;-81
2023/12/14 07:54:26;;;;;;;16.17;11.93;;;8.00;99.90;;;;;;5014792;28;20217;-80
2023/12/14 07:56:53;;;;;;;18.47;12.57;;;8.00;99.90;;;;;;5014905;28;20646;-80
2023/12/14 07:59:20;;;;;;;29.43;12.83;;;7.90;99.90;;;;;;5014689;28;20218;-82
2023/12/14 08:01:47;;;;;;;19.47;11.57;;;7.80;99.90;;;;;;4988153;28;20262;-83
2023/12/14 08:04:15;;;;;;;22.27;11.63;;;7.70;99.90;;;;;;4973402;28;20593;-81
2023/12/14 08:06:43;;;;;;;18.63;12.30;;;7.50;99.90;;;;;;4972210;28;20309;-81
2023/12/14 08:09:10;;;;;;;19.40;11.17;;;7.50;99.90;;;;;;4973641;28;20206;-80
2023/12/14 08:11:37;;;;;;;20.30;12.03;;;7.50;99.90;;;;;;4996887;28;20279;-81
2023/12/14 08:14:04;;;;;;;24.50;11.67;;;7.50;99.90;;;;;;4973883;28;20311;-84
2023/12/14 08:16:31;;;;;;;19.60;9.70;;;7.70;99.90;;;;;;4973230;28;20287;-80
2023/12/14 08:19:01;;;;;;;20.73;10.37;;;7.60;99.90;;;;;;4973600;28;20209;-80
2023/12/14 08:21:28;;;;;;;17.47;10.07;;;7.50;99.90;;;;;;4973152;28;20295;-82
2023/12/14 08:23:56;;;;;;;20.17;10.30;;;7.60;99.90;;;;;;5012352;28;20237;-81
2023/12/14 08:26:23;;;;;;;17.20;9.30;;;7.60;99.90;;;;;;5022097;28;20191;-80
2023/12/14 08:28:50;;;;;;;14.83;8.97;;;7.70;99.90;;;;;;5019788;28;20186;-79
2023/12/14 08:31:17;;;;;;;14.77;8.37;;;8.00;99.90;;;;;;5015499;28;20662;-80
2023/12/14 08:33:44;;;;;;;20.67;9.80;;;8.00;99.90;;;;;;5007048;28;20251;-82
2023/12/14 08:36:11;;;;;;;18.47;9.87;;;7.90;99.90;;;;;;4999813;28;20230;-81
2023/12/14 08:38:38;;;;;;;14.87;9.13;;;7.90;99.90;;;;;;4995163;28;20228;-82
2023/12/14 08:41:07;;;;;;;20.70;10.07;;;7.90;99.90;;;;;;5011079;28;20309;-80
2023/12/14 08:43:33;;;;;;;16.73;9.60;;;7.80;99.90;;;;;;5014926;28;20226;-83
2023/12/14 08:46:00;;;;;;;16.23;9.73;;;7.70;99.90;;;;;;5015335;28;20190;-80
2023/12/14 08:48:27;;;;;;;15.07;9.80;;;7.80;99.90;;;;;;5015999;28;20217;-79
2023/12/14 08:50:55;;;;;;;14.27;9.77;;;7.90;99.90;;;;;;5011502;28;20202;-79
2023/12/14 08:53:22;;;;;;;19.13;11.07;;;7.90;99.90;;;;;;5020785;28;20218;-78
2023/12/14 08:55:49;;;;;;;16.67;10.03;;;7.90;99.90;;;;;;5029340;28;20210;-77
2023/12/14 08:58:17;;;;;;;13.07;9.67;;;8.00;99.90;;;;;;5029451;28;20210;-77
2023/12/14 09:00:44;;;;;;;19.13;10.40;;;8.10;99.90;;;;;;5026353;28;20202;-81
2023/12/14 09:03:11;;;;;;;20.17;10.23;;;8.20;99.90;;;;;;5015298;28;20660;-81
2023/12/14 09:05:41;;;;;;;17.37;10.63;;;8.20;99.90;;;;;;5011337;28;20218;-78
2023/12/14 09:08:08;;;;;;;17.80;10.30;;;8.10;99.90;;;;;;4995173;28;20198;-80
2023/12/14 09:10:35;;;;;;;18.07;9.43;;;8.10;99.90;;;;;;4993681;28;20674;-81
2023/12/14 09:13:04;;;;;;;16.87;10.13;;;8.00;99.90;;;;;;4994458;28;20237;-78
2023/12/14 09:15:32;;;;;;;14.03;9.20;;;8.10;99.90;;;;;;4993801;28;20655;-81
2023/12/14 09:17:59;;;;;;;15.97;8.63;;;8.40;99.90;;;;;;5001633;28;20226;-81
2023/12/14 09:20:27;;;;;;;13.53;9.07;;;8.50;99.90;;;;;;5012807;28;20229;-79
2023/12/14 09:22:54;;;;;;;12.57;8.17;;;8.40;99.90;;;;;;4994436;28;20233;-83
2023/12/14 09:25:21;;;;;;;14.03;8.00;;;8.40;99.90;;;;;;4994098;28;20636;-80
2023/12/14 09:27:48;;;;;;;13.83;8.30;;;8.30;99.90;;;;;;4994051;28;20679;-84
2023/12/14 09:30:17;;;;;;;18.20;8.83;;;8.30;99.90;;;;;;4994624;28;20190;-81
2023/12/14 09:32:45;;;;;;;21.70;8.30;;;8.40;99.90;;;;;;4992731;28;20210;-83
2023/12/14 09:35:12;;;;;;;13.37;7.63;;;8.40;99.90;;;;;;4993313;28;20801;-80
2023/12/14 09:37:41;;;;;;;11.40;7.70;;;8.40;99.90;;;;;;5009188;28;20186;-79
2023/12/14 09:40:09;;;;;;;15.47;7.30;;;8.40;99.90;;;;;;5002103;28;20195;-78
2023/12/14 09:42:39;;;;;;;12.67;7.73;;;8.50;99.90;;;;;;4994690;28;20228;-83
2023/12/14 09:45:09;;;;;;;14.97;7.43;;;8.70;99.90;;;;;;4991517;28;20195;-81
2023/12/14 09:47:36;;;;;;;10.47;6.37;;;8.60;99.90;;;;;;4998759;28;20191;-85
2023/12/14 09:50:05;;;;;;;16.40;6.97;;;8.70;99.90;;;;;;5002729;28;20198;-79
2023/12/14 09:52:33;;;;;;;13.70;7.13;;;8.80;99.90;;;;;;4997068;28;20214;-80
2023/12/14 09:55:00;;;;;;;15.00;7.63;;;8.80;99.90;;;;;;4994286;28;20195;-81
2023/12/14 09:57:27;;;;;;;20.30;7.73;;;8.70;99.90;;;;;;4992660;28;20690;-79
2023/12/14 09:59:54;;;;;;;14.17;7.07;;;8.60;99.90;;;;;;4995809;28;20531;-77
2023/12/14 10:02:26;;;;;;;14.87;6.27;;;8.70;99.90;;;;;;5008306;28;20197;-81
2023/12/14 10:04:53;;;;;;;13.00;6.77;;;8.80;99.90;;;;;;5011879;28;20700;-80
2023/12/14 10:07:22;;;;;;;12.07;7.00;;;8.70;99.90;;;;;;5012299;28;20639;-80
2023/12/14 10:09:49;;;;;;;15.53;6.33;;;8.80;99.90;;;;;;4993929;28;20226;-78
2023/12/14 10:12:17;;;;;;;14.10;6.90;;;8.80;99.90;;;;;;4992704;28;20202;-78
2023/12/14 10:14:44;;;;;;;15.13;6.87;;;8.80;99.90;;;;;;4995806;28;20532;-84
2023/12/14 10:17:17;;;;;;;11.13;6.23;;;8.90;99.90;;;;;;5008819;28;20264;-85
2023/12/14 10:19:44;;;;;;;20.63;5.70;;;8.90;99.90;;;;;;4996071;28;20253;-85
2023/12/14 10:22:12;;;;;;;11.97;6.17;;;8.80;99.90;;;;;;5010227;28;20186;-84
2023/12/14 10:24:43;;;;;;;11.90;5.70;;;8.90;99.90;;;;;;5012844;28;20222;-84
2023/12/14 10:27:11;;;;;;;10.33;5.67;;;8.80;99.90;;;;;;4994085;28;20256;-83
2023/12/14 10:29:39;;;;;;;10.50;5.50;;;8.80;99.90;;;;;;4996474;28;20192;-79
2023/12/14 10:32:08;;;;;;;8.63;5.53;;;8.90;99.90;;;;;;5015162;28;20206;-82
2023/12/14 10:34:35;;;;;;;8.23;6.50;;;8.90;99.90;;;;;;5024699;28;20301;-82
2023/12/14 10:37:04;;;;;;;18.13;7.30;;;9.00;99.90;;;;;;5009172;28;20217;-81
2023/12/14 10:39:34;;;;;;;18.17;7.13;;;9.20;99.90;;;;;;5003256;28;20214;-80
2023/12/14 10:42:04;;;;;;;11.77;6.13;;;9.20;99.90;;;;;;5012016;28;20191;-82
2023/12/14 10:44:35;;;;;;;19.97;6.33;;;9.20;99.90;;;;;;5001624;28;20304;-85
2023/12/14 10:47:04;;;;;;;18.93;7.10;;;9.00;99.90;;;;;;5006472;28;20230;-79
2023/12/14 10:49:34;;;;;;;17.03;6.13;;;9.00;99.90;;;;;;5016109;28;20226;-83
2023/12/14 10:52:02;;;;;;;17.70;6.73;;;9.10;99.90;;;;;;5015059;28;20196;-83
2023/12/14 10:54:31;;;;;;;11.67;5.57;;;9.20;99.90;;;;;;5016296;28;20218;-84
2023/12/14 10:56:58;;;;;;;13.67;6.00;;;9.20;99.90;;;;;;5016207;28;20213;-83
2023/12/14 10:59:27;;;;;;;10.70;6.50;;;9.10;99.90;;;;;;5014341;28;20278;-81
2023/12/14 11:01:57;;;;;;;13.33;6.30;;;9.10;99.90;;;;;;5011375;28;20237;-80
2023/12/14 11:04:24;;;;;;;16.33;5.20;;;9.10;99.90;;;;;;5006649;28;20245;-83
2023/12/14 11:06:54;;;;;;;14.27;5.77;;;9.20;99.90;;;;;;5012561;28;20229;-84
2023/12/14 11:09:24;;;;;;;8.87;5.17;;;9.30;99.90;;;;;;5012645;28;20280;-80
2023/12/14 11:11:59;;;;;;;14.63;5.17;;;9.30;99.90;;;;;;4996917;28;20202;-77
2023/12/14 11:14:29;;;;;;;9.73;4.67;;;9.00;99.90;;;;;;5006080;28;20218;-78
2023/12/14 11:16:57;;;;;;;10.90;4.80;;;9.20;99.90;;;;;;5006661;28;20195;-78
2023/12/14 11:19:27;;;;;;;6.80;4.90;;;9.30;99.90;;;;;;5010362;28;20198;-80
2023/12/14 11:22:17;;;;;;;12.70;5.10;;;9.30;99.90;;;;;;4995161;28;20229;-80
2023/12/14 11:24:51;;;;;;;11.03;5.37;;;9.20;99.90;;;;;;5013799;28;20221;-78
2023/12/14 11:27:21;;;;;;;17.50;6.57;;;9.20;99.90;;;;;;5004042;28;20701;-78
2023/12/14 11:29:51;;;;;;;10.63;5.27;;;9.30;99.90;;;;;;5013582;28;20202;-79
2023/12/14 11:32:18;;;;;;;14.13;5.50;;;9.30;99.90;;;;;;5011739;28;20275;-79
2023/12/14 11:34:47;;;;;;;12.87;5.47;;;9.30;99.90;;;;;;5011381;28;20285;-78
2023/12/14 11:37:15;;;;;;;15.67;6.50;;;9.30;99.90;;;;;;5003722;28;20203;-81
2023/12/14 11:39:42;;;;;;;13.33;6.80;;;9.40;99.90;;;;;;4996981;28;20195;-77
2023/12/14 11:42:10;;;;;;;21.20;6.90;;;9.20;99.90;;;;;;4998736;28;20547;-80
2023/12/14 11:44:38;;;;;;;15.00;7.27;;;9.10;99.90;;;;;;5008325;28;20635;-78
2023/12/14 11:47:06;;;;;;;20.43;7.83;;;9.10;99.90;;;;;;5008277;28;20206;-82
2023/12/14 11:49:34;;;;;;;18.20;7.57;;;9.20;99.90;;;;;;5002161;28;20191;-79
2023/12/14 11:52:05;;;;;;;14.23;7.37;;;9.20;99.90;;;;;;5006764;28;20236;-77
2023/12/14 11:54:32;;;;;;;14.67;8.10;;;9.20;99.90;;;;;;5012729;28;20241;-80
2023/12/14 11:57:03;;;;;;;18.10;7.50;;;9.00;99.90;;;;;;5009512;28;20570;-81
2023/12/14 11:59:32;;;;;;;21.63;7.70;;;9.00;99.90;;;;;;5007056;28;20601;-79
2023/12/14 12:02:01;;;;;;;12.73;7.77;;;9.10;99.90;;;;;;5016317;28;20230;-77
2023/12/14 12:04:30;;;;;;;13.63;7.50;;;9.20;99.90;;;;;;5003746;28;20266;-84
2023/12/14 12:07:01;;;;;;;13.03;7.40;;;9.30;99.90;;;;;;5003434;28;20206;-82
2023/12/14 12:09:40;;;;;;;13.77;7.83;;;9.20;99.90;;;;;;5007743;28;20219;-81
2023/12/14 12:12:08;;;;;;;23.30;7.97;;;9.10;99.90;;;;;;5005673;28;20205;-83
2023/12/14 12:14:35;;;;;;;18.57;7.53;;;9.00;99.90;;;;;;5008693;28;20218;-79
2023/12/14 12:17:04;;;;;;;15.33;8.10;;;9.00;99.90;;;;;;5013775;28;20194;-82
2023/12/14 12:19:33;;;;;;;19.77;8.23;;;9.10;99.90;;;;;;5013035;28;20198;-82
2023/12/14 12:22:00;;;;;;;13.53;7.03;;;9.20;99.90;;;;;;5013107;28;20214;-82
2023/12/14 12:24:27;;;;;;;15.70;7.40;;;9.30;99.90;;;;;;4996957;28;20229;-82
2023/12/14 12:26:54;;;;;;;16.53;7.67;;;9.40;99.90;;;;;;5000342;28;20209;-82
2023/12/14 12:29:21;;;;;;;15.23;7.13;;;9.30;99.90;;;;;;5012743;28;20228;-76
2023/12/14 12:31:48;;;;;;;14.00;6.83;;;9.30;99.90;;;;;;5008578;28;20405;-77
2023/12/14 12:34:16;;;;;;;11.47;6.27;;;9.30;99.90;;;;;;5012410;28;20239;-81
2023/12/14 12:36:44;;;;;;;13.70;6.87;;;9.10;99.90;;;;;;5019684;28;20550;-83
2023/12/14 12:39:11;;;;;;;22.03;6.53;;;9.20;99.90;;;;;;5014935;28;20205;-81
2023/12/14 12:41:38;;;;;;;14.03;6.83;;;9.20;99.90;;;;;;5030785;28;20238;-82